sensor_id;sensor_type;location;lat;lon;timestamp;temperature;humidity
66708;DHT22;53622;0.000;0.000;2023-07-29T00:00:30;24.20;83.30
66708;DHT22;53622;0.000;0.000;2023-07-29T00:02:59;24.20;83.20
66708;DHT22;53622;0.000;0.000;2023-07-29T00:05:28;24.20;82.90
66708;DHT22;53622;0.000;0.000;2023-07-29T00:07:57;24.20;82.60
66708;DHT22;53622;0.000;0.000;2023-07-29T00:10:27;24.30;82.60
66708;DHT22;53622;0.000;0.000;2023-07-29T00:12:58;24.30;82.60
66708;DHT22;53622;0.000;0.000;2023-07-29T00:15:27;24.20;82.80
66708;DHT22;53622;0.000;0.000;2023-07-29T00:17:56;24.20;83.30
66708;DHT22;53622;0.000;0.000;2023-07-29T00:20:25;24.20;83.40
66708;DHT22;53622;0.000;0.000;2023-07-29T00:22:55;24.20;83.50
66708;DHT22;53622;0.000;0.000;2023-07-29T00:25:25;24.20;83.50
66708;DHT22;53622;0.000;0.000;2023-07-29T00:27:57;24.20;83.30
66708;DHT22;53622;0.000;0.000;2023-07-29T00:30:27;24.20;83.10
66708;DHT22;53622;0.000;0.000;2023-07-29T00:32:57;24.10;83.20
66708;DHT22;53622;0.000;0.000;2023-07-29T00:35:26;24.10;83.10
66708;DHT22;53622;0.000;0.000;2023-07-29T00:37:55;24.10;83.00
66708;DHT22;53622;0.000;0.000;2023-07-29T00:40:28;24.10;82.40
66708;DHT22;53622;0.000;0.000;2023-07-29T00:42:59;24.10;82.00
66708;DHT22;53622;0.000;0.000;2023-07-29T00:45:29;24.10;81.80
66708;DHT22;53622;0.000;0.000;2023-07-29T00:47:59;24.10;81.30
66708;DHT22;53622;0.000;0.000;2023-07-29T00:50:31;24.10;80.80
66708;DHT22;53622;0.000;0.000;2023-07-29T00:53:01;24.10;80.10
66708;DHT22;53622;0.000;0.000;2023-07-29T00:55:29;24.10;80.00
66708;DHT22;53622;0.000;0.000;2023-07-29T00:58:00;24.10;79.70
66708;DHT22;53622;0.000;0.000;2023-07-29T01:00:29;24.00;79.40
66708;DHT22;53622;0.000;0.000;2023-07-29T01:02:59;24.00;79.20
66708;DHT22;53622;0.000;0.000;2023-07-29T01:05:34;24.00;78.80
66708;DHT22;53622;0.000;0.000;2023-07-29T01:08:11;24.00;78.80
66708;DHT22;53622;0.000;0.000;2023-07-29T01:10:49;23.90;78.20
66708;DHT22;53622;0.000;0.000;2023-07-29T01:13:28;23.90;77.80
66708;DHT22;53622;0.000;0.000;2023-07-29T01:16:04;23.90;77.40
66708;DHT22;53622;0.000;0.000;2023-07-29T01:18:36;23.90;77.10
66708;DHT22;53622;0.000;0.000;2023-07-29T01:21:08;23.90;76.80
66708;DHT22;53622;0.000;0.000;2023-07-29T01:23:39;23.90;76.50
66708;DHT22;53622;0.000;0.000;2023-07-29T01:26:09;23.90;76.40
66708;DHT22;53622;0.000;0.000;2023-07-29T01:28:38;23.90;76.40
66708;DHT22;53622;0.000;0.000;2023-07-29T01:31:12;23.80;76.30
66708;DHT22;53622;0.000;0.000;2023-07-29T01:33:44;23.80;76.00
66708;DHT22;53622;0.000;0.000;2023-07-29T01:36:20;23.90;75.80
66708;DHT22;53622;0.000;0.000;2023-07-29T01:38:55;23.80;75.90
66708;DHT22;53622;0.000;0.000;2023-07-29T01:41:25;23.80;75.90
66708;DHT22;53622;0.000;0.000;2023-07-29T01:43:57;23.80;75.90
66708;DHT22;53622;0.000;0.000;2023-07-29T01:46:26;23.80;75.30
66708;DHT22;53622;0.000;0.000;2023-07-29T01:48:56;23.80;74.90
66708;DHT22;53622;0.000;0.000;2023-07-29T01:51:25;23.80;74.70
66708;DHT22;53622;0.000;0.000;2023-07-29T01:53:56;23.80;74.30
66708;DHT22;53622;0.000;0.000;2023-07-29T01:56:26;23.70;74.00
66708;DHT22;53622;0.000;0.000;2023-07-29T01:58:57;23.70;73.60
66708;DHT22;53622;0.000;0.000;2023-07-29T02:01:28;23.70;73.30
66708;DHT22;53622;0.000;0.000;2023-07-29T02:03:59;23.70;73.30
66708;DHT22;53622;0.000;0.000;2023-07-29T02:06:28;23.70;73.20
66708;DHT22;53622;0.000;0.000;2023-07-29T02:08:59;23.70;73.30
66708;DHT22;53622;0.000;0.000;2023-07-29T02:11:28;23.70;72.90
66708;DHT22;53622;0.000;0.000;2023-07-29T02:13:57;23.70;72.80
66708;DHT22;53622;0.000;0.000;2023-07-29T02:16:27;23.70;72.50
66708;DHT22;53622;0.000;0.000;2023-07-29T02:18:57;23.70;72.30
66708;DHT22;53622;0.000;0.000;2023-07-29T02:21:26;23.70;71.60
66708;DHT22;53622;0.000;0.000;2023-07-29T02:23:55;23.70;71.70
66708;DHT22;53622;0.000;0.000;2023-07-29T02:26:26;23.70;72.00
66708;DHT22;53622;0.000;0.000;2023-07-29T02:28:55;23.70;72.30
66708;DHT22;53622;0.000;0.000;2023-07-29T02:31:25;23.70;72.60
66708;DHT22;53622;0.000;0.000;2023-07-29T02:33:55;23.70;73.40
66708;DHT22;53622;0.000;0.000;2023-07-29T02:36:24;23.70;74.60
66708;DHT22;53622;0.000;0.000;2023-07-29T02:38:53;23.70;74.20
66708;DHT22;53622;0.000;0.000;2023-07-29T02:41:23;23.70;74.60
66708;DHT22;53622;0.000;0.000;2023-07-29T02:43:54;23.60;75.00
66708;DHT22;53622;0.000;0.000;2023-07-29T02:46:23;23.60;75.20
66708;DHT22;53622;0.000;0.000;2023-07-29T02:48:52;23.60;75.30
66708;DHT22;53622;0.000;0.000;2023-07-29T02:51:22;23.60;75.40
66708;DHT22;53622;0.000;0.000;2023-07-29T02:53:51;23.50;75.40
66708;DHT22;53622;0.000;0.000;2023-07-29T02:56:20;23.50;75.60
66708;DHT22;53622;0.000;0.000;2023-07-29T02:58:50;23.50;75.50
66708;DHT22;53622;0.000;0.000;2023-07-29T03:01:23;23.40;75.10
66708;DHT22;53622;0.000;0.000;2023-07-29T03:03:53;23.40;75.10
66708;DHT22;53622;0.000;0.000;2023-07-29T03:06:23;23.40;75.10
66708;DHT22;53622;0.000;0.000;2023-07-29T03:08:53;23.40;75.60
66708;DHT22;53622;0.000;0.000;2023-07-29T03:11:22;23.40;75.60
66708;DHT22;53622;0.000;0.000;2023-07-29T03:13:51;23.40;75.40
66708;DHT22;53622;0.000;0.000;2023-07-29T03:16:22;23.40;75.20
66708;DHT22;53622;0.000;0.000;2023-07-29T03:18:55;23.30;75.00
66708;DHT22;53622;0.000;0.000;2023-07-29T03:21:25;23.30;75.00
66708;DHT22;53622;0.000;0.000;2023-07-29T03:23:54;23.30;75.30
66708;DHT22;53622;0.000;0.000;2023-07-29T03:26:24;23.20;75.60
66708;DHT22;53622;0.000;0.000;2023-07-29T03:28:53;23.30;75.80
66708;DHT22;53622;0.000;0.000;2023-07-29T03:31:24;23.20;75.90
66708;DHT22;53622;0.000;0.000;2023-07-29T03:33:53;23.20;75.80
66708;DHT22;53622;0.000;0.000;2023-07-29T03:36:22;23.20;75.80
66708;DHT22;53622;0.000;0.000;2023-07-29T03:38:53;23.10;76.40
66708;DHT22;53622;0.000;0.000;2023-07-29T03:41:22;23.10;77.10
66708;DHT22;53622;0.000;0.000;2023-07-29T03:43:52;23.10;77.60
66708;DHT22;53622;0.000;0.000;2023-07-29T03:46:21;23.00;77.80
66708;DHT22;53622;0.000;0.000;2023-07-29T03:48:52;23.00;77.60
66708;DHT22;53622;0.000;0.000;2023-07-29T03:51:22;23.00;77.20
66708;DHT22;53622;0.000;0.000;2023-07-29T03:53:52;23.00;77.20
66708;DHT22;53622;0.000;0.000;2023-07-29T03:56:21;23.00;77.50
66708;DHT22;53622;0.000;0.000;2023-07-29T03:58:51;23.00;77.80
66708;DHT22;53622;0.000;0.000;2023-07-29T04:01:21;22.90;78.30
66708;DHT22;53622;0.000;0.000;2023-07-29T04:03:51;22.90;78.70
66708;DHT22;53622;0.000;0.000;2023-07-29T04:06:23;22.90;78.90
66708;DHT22;53622;0.000;0.000;2023-07-29T04:08:52;22.90;78.90
66708;DHT22;53622;0.000;0.000;2023-07-29T04:11:22;22.90;78.90
66708;DHT22;53622;0.000;0.000;2023-07-29T04:13:51;22.90;78.90
66708;DHT22;53622;0.000;0.000;2023-07-29T04:16:20;22.90;79.10
66708;DHT22;53622;0.000;0.000;2023-07-29T04:18:51;23.00;79.10
66708;DHT22;53622;0.000;0.000;2023-07-29T04:21:21;23.00;79.30
66708;DHT22;53622;0.000;0.000;2023-07-29T04:23:50;22.90;79.90
66708;DHT22;53622;0.000;0.000;2023-07-29T04:26:19;22.90;79.90
66708;DHT22;53622;0.000;0.000;2023-07-29T04:28:49;22.80;79.60
66708;DHT22;53622;0.000;0.000;2023-07-29T04:31:18;22.90;79.30
66708;DHT22;53622;0.000;0.000;2023-07-29T04:33:47;22.90;79.30
66708;DHT22;53622;0.000;0.000;2023-07-29T04:36:19;22.90;79.30
66708;DHT22;53622;0.000;0.000;2023-07-29T04:38:48;22.80;79.30
66708;DHT22;53622;0.000;0.000;2023-07-29T04:41:17;22.70;79.90
66708;DHT22;53622;0.000;0.000;2023-07-29T04:43:47;22.70;79.80
66708;DHT22;53622;0.000;0.000;2023-07-29T04:46:17;22.80;79.90
66708;DHT22;53622;0.000;0.000;2023-07-29T04:48:46;22.80;80.30
66708;DHT22;53622;0.000;0.000;2023-07-29T04:51:17;22.70;80.80
66708;DHT22;53622;0.000;0.000;2023-07-29T04:53:47;22.70;81.10
66708;DHT22;53622;0.000;0.000;2023-07-29T04:56:16;22.70;81.60
66708;DHT22;53622;0.000;0.000;2023-07-29T04:58:46;22.60;81.70
66708;DHT22;53622;0.000;0.000;2023-07-29T05:01:15;22.60;82.00
66708;DHT22;53622;0.000;0.000;2023-07-29T05:03:45;22.60;82.40
66708;DHT22;53622;0.000;0.000;2023-07-29T05:06:14;22.50;82.40
66708;DHT22;53622;0.000;0.000;2023-07-29T05:08:45;22.60;82.50
66708;DHT22;53622;0.000;0.000;2023-07-29T05:11:14;22.60;82.40
66708;DHT22;53622;0.000;0.000;2023-07-29T05:13:43;22.60;82.20
66708;DHT22;53622;0.000;0.000;2023-07-29T05:16:12;22.60;82.00
66708;DHT22;53622;0.000;0.000;2023-07-29T05:18:42;22.70;82.10
66708;DHT22;53622;0.000;0.000;2023-07-29T05:21:11;22.70;82.00
66708;DHT22;53622;0.000;0.000;2023-07-29T05:23:43;22.70;82.10
66708;DHT22;53622;0.000;0.000;2023-07-29T05:26:14;22.70;81.80
66708;DHT22;53622;0.000;0.000;2023-07-29T05:28:44;22.80;81.60
66708;DHT22;53622;0.000;0.000;2023-07-29T05:31:14;22.80;82.30
66708;DHT22;53622;0.000;0.000;2023-07-29T05:33:43;22.80;81.30
66708;DHT22;53622;0.000;0.000;2023-07-29T05:36:13;22.90;81.40
66708;DHT22;53622;0.000;0.000;2023-07-29T05:38:45;22.90;81.30
66708;DHT22;53622;0.000;0.000;2023-07-29T05:41:15;22.90;81.40
66708;DHT22;53622;0.000;0.000;2023-07-29T05:43:45;22.90;81.20
66708;DHT22;53622;0.000;0.000;2023-07-29T05:46:15;22.90;81.00
66708;DHT22;53622;0.000;0.000;2023-07-29T05:48:44;23.00;80.90
66708;DHT22;53622;0.000;0.000;2023-07-29T05:51:13;23.00;80.60
66708;DHT22;53622;0.000;0.000;2023-07-29T05:53:43;23.00;80.70
66708;DHT22;53622;0.000;0.000;2023-07-29T05:56:12;23.00;81.10
66708;DHT22;53622;0.000;0.000;2023-07-29T05:58:43;23.00;81.80
66708;DHT22;53622;0.000;0.000;2023-07-29T06:01:13;23.10;82.10
66708;DHT22;53622;0.000;0.000;2023-07-29T06:03:42;23.10;82.40
66708;DHT22;53622;0.000;0.000;2023-07-29T06:06:13;23.10;82.80
66708;DHT22;53622;0.000;0.000;2023-07-29T06:08:43;23.10;83.40
66708;DHT22;53622;0.000;0.000;2023-07-29T06:11:12;23.20;83.30
66708;DHT22;53622;0.000;0.000;2023-07-29T06:13:44;23.20;83.30
66708;DHT22;53622;0.000;0.000;2023-07-29T06:16:14;23.20;82.70
66708;DHT22;53622;0.000;0.000;2023-07-29T06:18:45;23.30;82.30
66708;DHT22;53622;0.000;0.000;2023-07-29T06:21:15;23.30;81.90
66708;DHT22;53622;0.000;0.000;2023-07-29T06:23:45;23.30;81.60
66708;DHT22;53622;0.000;0.000;2023-07-29T06:26:15;23.30;81.60
66708;DHT22;53622;0.000;0.000;2023-07-29T06:28:45;23.40;82.30
66708;DHT22;53622;0.000;0.000;2023-07-29T06:31:15;23.40;82.70
66708;DHT22;53622;0.000;0.000;2023-07-29T06:33:44;23.40;82.20
66708;DHT22;53622;0.000;0.000;2023-07-29T06:36:14;23.40;81.60
66708;DHT22;53622;0.000;0.000;2023-07-29T06:38:43;23.50;81.60
66708;DHT22;53622;0.000;0.000;2023-07-29T06:41:12;23.50;81.00
66708;DHT22;53622;0.000;0.000;2023-07-29T06:43:46;23.50;81.30
66708;DHT22;53622;0.000;0.000;2023-07-29T06:46:15;23.60;82.40
66708;DHT22;53622;0.000;0.000;2023-07-29T06:48:45;23.60;82.10
66708;DHT22;53622;0.000;0.000;2023-07-29T06:51:15;23.60;82.20
66708;DHT22;53622;0.000;0.000;2023-07-29T06:53:45;23.60;82.00
66708;DHT22;53622;0.000;0.000;2023-07-29T06:56:14;23.70;81.80
66708;DHT22;53622;0.000;0.000;2023-07-29T06:58:44;23.70;81.20
66708;DHT22;53622;0.000;0.000;2023-07-29T07:01:14;23.70;80.70
66708;DHT22;53622;0.000;0.000;2023-07-29T07:03:44;23.70;80.40
66708;DHT22;53622;0.000;0.000;2023-07-29T07:06:13;23.80;80.80
66708;DHT22;53622;0.000;0.000;2023-07-29T07:08:42;23.70;80.50
66708;DHT22;53622;0.000;0.000;2023-07-29T07:11:12;23.80;80.40
66708;DHT22;53622;0.000;0.000;2023-07-29T07:13:41;23.80;80.20
66708;DHT22;53622;0.000;0.000;2023-07-29T07:16:10;23.80;80.40
66708;DHT22;53622;0.000;0.000;2023-07-29T07:18:41;23.80;80.00
66708;DHT22;53622;0.000;0.000;2023-07-29T07:21:11;23.80;80.20
66708;DHT22;53622;0.000;0.000;2023-07-29T07:23:40;23.80;80.20
66708;DHT22;53622;0.000;0.000;2023-07-29T07:26:09;23.80;80.60
66708;DHT22;53622;0.000;0.000;2023-07-29T07:28:38;23.80;81.00
66708;DHT22;53622;0.000;0.000;2023-07-29T07:31:08;23.80;81.10
66708;DHT22;53622;0.000;0.000;2023-07-29T07:33:37;23.80;80.80
66708;DHT22;53622;0.000;0.000;2023-07-29T07:36:08;23.90;80.60
66708;DHT22;53622;0.000;0.000;2023-07-29T07:38:37;23.90;80.30
66708;DHT22;53622;0.000;0.000;2023-07-29T07:41:06;23.90;80.30
66708;DHT22;53622;0.000;0.000;2023-07-29T07:43:36;23.90;80.30
66708;DHT22;53622;0.000;0.000;2023-07-29T07:46:06;23.90;80.30
66708;DHT22;53622;0.000;0.000;2023-07-29T07:48:36;23.90;80.40
66708;DHT22;53622;0.000;0.000;2023-07-29T07:51:16;23.90;80.20
66708;DHT22;53622;0.000;0.000;2023-07-29T07:53:46;23.90;80.10
66708;DHT22;53622;0.000;0.000;2023-07-29T07:56:15;23.90;80.10
66708;DHT22;53622;0.000;0.000;2023-07-29T07:58:45;23.90;80.10
66708;DHT22;53622;0.000;0.000;2023-07-29T08:01:14;23.90;80.10
66708;DHT22;53622;0.000;0.000;2023-07-29T08:03:44;23.90;80.20
66708;DHT22;53622;0.000;0.000;2023-07-29T08:06:13;23.90;80.80
66708;DHT22;53622;0.000;0.000;2023-07-29T08:08:44;23.90;80.20
66708;DHT22;53622;0.000;0.000;2023-07-29T08:11:13;23.90;80.00
66708;DHT22;53622;0.000;0.000;2023-07-29T08:13:42;23.90;79.80
66708;DHT22;53622;0.000;0.000;2023-07-29T08:16:12;23.90;80.00
66708;DHT22;53622;0.000;0.000;2023-07-29T08:18:42;23.90;80.00
66708;DHT22;53622;0.000;0.000;2023-07-29T08:21:11;23.90;80.30
66708;DHT22;53622;0.000;0.000;2023-07-29T08:23:41;23.90;80.10
66708;DHT22;53622;0.000;0.000;2023-07-29T08:26:11;23.90;80.40
66708;DHT22;53622;0.000;0.000;2023-07-29T08:28:41;23.90;80.40
66708;DHT22;53622;0.000;0.000;2023-07-29T08:31:10;23.90;80.40
66708;DHT22;53622;0.000;0.000;2023-07-29T08:33:40;23.90;80.30
66708;DHT22;53622;0.000;0.000;2023-07-29T08:36:09;23.90;80.40
66708;DHT22;53622;0.000;0.000;2023-07-29T08:38:39;23.90;80.30
66708;DHT22;53622;0.000;0.000;2023-07-29T08:41:13;23.90;80.40
66708;DHT22;53622;0.000;0.000;2023-07-29T08:43:47;24.00;80.20
66708;DHT22;53622;0.000;0.000;2023-07-29T08:46:19;24.00;79.90
66708;DHT22;53622;0.000;0.000;2023-07-29T08:48:50;24.00;79.90
66708;DHT22;53622;0.000;0.000;2023-07-29T08:51:20;24.00;79.70
66708;DHT22;53622;0.000;0.000;2023-07-29T08:53:50;24.00;79.80
66708;DHT22;53622;0.000;0.000;2023-07-29T08:56:21;24.00;79.90
66708;DHT22;53622;0.000;0.000;2023-07-29T08:58:51;24.00;80.00
66708;DHT22;53622;0.000;0.000;2023-07-29T09:01:21;24.10;80.00
66708;DHT22;53622;0.000;0.000;2023-07-29T09:03:51;23.80;92.70
66708;DHT22;53622;0.000;0.000;2023-07-29T09:06:21;24.00;99.90
66708;DHT22;53622;0.000;0.000;2023-07-29T09:08:51;24.10;93.40
66708;DHT22;53622;0.000;0.000;2023-07-29T09:11:23;24.20;97.20
66708;DHT22;53622;0.000;0.000;2023-07-29T09:21:24;24.10;99.30
66708;DHT22;53622;0.000;0.000;2023-07-29T09:23:55;23.90;99.90
66708;DHT22;53622;0.000;0.000;2023-07-29T09:26:26;24.00;92.30
66708;DHT22;53622;0.000;0.000;2023-07-29T09:28:57;24.00;82.00
66708;DHT22;53622;0.000;0.000;2023-07-29T09:31:28;24.00;82.10
66708;DHT22;53622;0.000;0.000;2023-07-29T09:36:31;24.00;86.60
66708;DHT22;53622;0.000;0.000;2023-07-29T09:39:00;24.10;81.60
66708;DHT22;53622;0.000;0.000;2023-07-29T09:41:32;24.10;82.70
66708;DHT22;53622;0.000;0.000;2023-07-29T09:44:03;24.10;82.00
66708;DHT22;53622;0.000;0.000;2023-07-29T09:46:34;24.10;82.00
66708;DHT22;53622;0.000;0.000;2023-07-29T09:49:18;24.10;82.00
66708;DHT22;53622;0.000;0.000;2023-07-29T09:51:47;24.20;81.30
66708;DHT22;53622;0.000;0.000;2023-07-29T09:54:17;24.20;81.50
66708;DHT22;53622;0.000;0.000;2023-07-29T09:56:49;24.20;81.20
66708;DHT22;53622;0.000;0.000;2023-07-29T09:59:19;24.20;80.60
66708;DHT22;53622;0.000;0.000;2023-07-29T10:01:49;24.30;80.10
66708;DHT22;53622;0.000;0.000;2023-07-29T10:04:19;24.30;80.90
66708;DHT22;53622;0.000;0.000;2023-07-29T10:06:49;24.30;80.00
66708;DHT22;53622;0.000;0.000;2023-07-29T10:09:31;24.30;79.90
66708;DHT22;53622;0.000;0.000;2023-07-29T10:12:18;24.30;79.70
66708;DHT22;53622;0.000;0.000;2023-07-29T10:14:50;24.30;80.20
66708;DHT22;53622;0.000;0.000;2023-07-29T10:17:21;24.30;80.20
66708;DHT22;53622;0.000;0.000;2023-07-29T10:19:51;24.30;79.90
66708;DHT22;53622;0.000;0.000;2023-07-29T10:22:21;24.40;79.90
66708;DHT22;53622;0.000;0.000;2023-07-29T10:24:56;24.40;79.90
66708;DHT22;53622;0.000;0.000;2023-07-29T10:27:29;24.40;79.90
66708;DHT22;53622;0.000;0.000;2023-07-29T10:29:59;24.40;79.80
66708;DHT22;53622;0.000;0.000;2023-07-29T10:32:30;24.40;80.30
66708;DHT22;53622;0.000;0.000;2023-07-29T10:35:01;24.40;80.10
66708;DHT22;53622;0.000;0.000;2023-07-29T10:37:30;24.40;79.90
66708;DHT22;53622;0.000;0.000;2023-07-29T10:40:00;24.50;79.70
66708;DHT22;53622;0.000;0.000;2023-07-29T10:42:31;24.50;79.90
66708;DHT22;53622;0.000;0.000;2023-07-29T10:45:02;24.50;80.00
66708;DHT22;53622;0.000;0.000;2023-07-29T10:47:46;24.60;80.20
66708;DHT22;53622;0.000;0.000;2023-07-29T10:50:20;24.50;80.80
66708;DHT22;53622;0.000;0.000;2023-07-29T10:52:50;24.60;81.10
66708;DHT22;53622;0.000;0.000;2023-07-29T10:55:26;24.60;81.10
66708;DHT22;53622;0.000;0.000;2023-07-29T10:58:07;24.60;81.30
66708;DHT22;53622;0.000;0.000;2023-07-29T11:00:38;24.60;81.40
66708;DHT22;53622;0.000;0.000;2023-07-29T11:03:08;24.60;81.80
66708;DHT22;53622;0.000;0.000;2023-07-29T11:05:46;24.60;82.40
66708;DHT22;53622;0.000;0.000;2023-07-29T11:08:17;24.60;82.70
66708;DHT22;53622;0.000;0.000;2023-07-29T11:11:05;24.60;83.20
66708;DHT22;53622;0.000;0.000;2023-07-29T11:13:38;24.60;83.20
66708;DHT22;53622;0.000;0.000;2023-07-29T11:16:10;24.70;83.50
66708;DHT22;53622;0.000;0.000;2023-07-29T11:18:46;24.70;82.90
66708;DHT22;53622;0.000;0.000;2023-07-29T11:21:17;24.70;83.00
66708;DHT22;53622;0.000;0.000;2023-07-29T11:23:46;24.70;82.80
66708;DHT22;53622;0.000;0.000;2023-07-29T11:26:16;24.80;82.60
66708;DHT22;53622;0.000;0.000;2023-07-29T11:28:46;24.80;82.70
66708;DHT22;53622;0.000;0.000;2023-07-29T11:31:16;24.80;82.60
66708;DHT22;53622;0.000;0.000;2023-07-29T11:33:47;24.80;82.80
66708;DHT22;53622;0.000;0.000;2023-07-29T11:36:18;24.80;82.90
66708;DHT22;53622;0.000;0.000;2023-07-29T11:38:47;24.80;82.90
66708;DHT22;53622;0.000;0.000;2023-07-29T11:41:20;24.80;83.10
66708;DHT22;53622;0.000;0.000;2023-07-29T11:43:52;24.80;83.00
66708;DHT22;53622;0.000;0.000;2023-07-29T11:46:22;24.80;82.90
66708;DHT22;53622;0.000;0.000;2023-07-29T11:48:54;24.80;83.00
66708;DHT22;53622;0.000;0.000;2023-07-29T11:51:23;24.90;83.20
66708;DHT22;53622;0.000;0.000;2023-07-29T11:53:55;24.90;83.20
66708;DHT22;53622;0.000;0.000;2023-07-29T11:56:24;24.90;83.20
66708;DHT22;53622;0.000;0.000;2023-07-29T11:58:55;24.90;83.30
66708;DHT22;53622;0.000;0.000;2023-07-29T12:01:24;24.90;83.10
66708;DHT22;53622;0.000;0.000;2023-07-29T12:03:55;24.90;82.90
66708;DHT22;53622;0.000;0.000;2023-07-29T12:06:25;24.90;83.00
66708;DHT22;53622;0.000;0.000;2023-07-29T12:08:55;24.90;82.90
66708;DHT22;53622;0.000;0.000;2023-07-29T12:11:25;24.90;83.30
66708;DHT22;53622;0.000;0.000;2023-07-29T12:13:56;25.00;83.20
66708;DHT22;53622;0.000;0.000;2023-07-29T12:16:40;25.00;82.60
66708;DHT22;53622;0.000;0.000;2023-07-29T12:19:12;25.00;82.50
66708;DHT22;53622;0.000;0.000;2023-07-29T12:21:42;25.00;82.70
66708;DHT22;53622;0.000;0.000;2023-07-29T12:24:12;25.00;82.40
66708;DHT22;53622;0.000;0.000;2023-07-29T12:26:42;25.00;82.20
66708;DHT22;53622;0.000;0.000;2023-07-29T12:29:17;25.00;82.80
66708;DHT22;53622;0.000;0.000;2023-07-29T12:31:48;25.00;82.90
66708;DHT22;53622;0.000;0.000;2023-07-29T12:34:18;25.00;82.70
66708;DHT22;53622;0.000;0.000;2023-07-29T12:36:49;25.00;82.90
66708;DHT22;53622;0.000;0.000;2023-07-29T12:39:20;25.00;82.60
66708;DHT22;53622;0.000;0.000;2023-07-29T12:41:52;25.00;82.50
66708;DHT22;53622;0.000;0.000;2023-07-29T12:44:26;25.10;82.70
66708;DHT22;53622;0.000;0.000;2023-07-29T12:46:57;25.10;82.50
66708;DHT22;53622;0.000;0.000;2023-07-29T12:49:27;25.10;82.50
66708;DHT22;53622;0.000;0.000;2023-07-29T12:51:57;25.10;82.60
66708;DHT22;53622;0.000;0.000;2023-07-29T12:54:27;25.10;82.50
66708;DHT22;53622;0.000;0.000;2023-07-29T12:56:56;25.10;82.30
66708;DHT22;53622;0.000;0.000;2023-07-29T12:59:27;25.10;82.30
66708;DHT22;53622;0.000;0.000;2023-07-29T13:01:57;25.10;82.30
66708;DHT22;53622;0.000;0.000;2023-07-29T13:04:26;25.10;81.90
66708;DHT22;53622;0.000;0.000;2023-07-29T13:06:56;25.20;82.00
66708;DHT22;53622;0.000;0.000;2023-07-29T13:09:27;25.20;81.70
66708;DHT22;53622;0.000;0.000;2023-07-29T13:11:56;25.20;81.50
66708;DHT22;53622;0.000;0.000;2023-07-29T13:14:27;25.20;81.30
66708;DHT22;53622;0.000;0.000;2023-07-29T13:16:57;25.20;80.80
66708;DHT22;53622;0.000;0.000;2023-07-29T13:19:27;25.20;80.70
66708;DHT22;53622;0.000;0.000;2023-07-29T13:21:56;25.20;80.80
66708;DHT22;53622;0.000;0.000;2023-07-29T13:24:26;25.20;81.00
66708;DHT22;53622;0.000;0.000;2023-07-29T13:26:56;25.20;81.40
66708;DHT22;53622;0.000;0.000;2023-07-29T13:29:27;25.10;81.40
66708;DHT22;53622;0.000;0.000;2023-07-29T13:31:57;25.20;81.40
66708;DHT22;53622;0.000;0.000;2023-07-29T13:34:26;25.20;81.30
66708;DHT22;53622;0.000;0.000;2023-07-29T13:36:56;25.20;81.10
66708;DHT22;53622;0.000;0.000;2023-07-29T13:39:25;25.20;80.90
66708;DHT22;53622;0.000;0.000;2023-07-29T13:41:55;25.20;80.80
66708;DHT22;53622;0.000;0.000;2023-07-29T13:44:27;25.20;81.00
66708;DHT22;53622;0.000;0.000;2023-07-29T13:46:57;25.20;80.80
66708;DHT22;53622;0.000;0.000;2023-07-29T13:49:28;25.10;81.30
66708;DHT22;53622;0.000;0.000;2023-07-29T13:51:57;25.10;81.30
66708;DHT22;53622;0.000;0.000;2023-07-29T13:54:27;25.20;81.10
66708;DHT22;53622;0.000;0.000;2023-07-29T13:56:57;25.20;81.00
66708;DHT22;53622;0.000;0.000;2023-07-29T13:59:28;25.20;80.80
66708;DHT22;53622;0.000;0.000;2023-07-29T14:01:58;25.20;80.60
66708;DHT22;53622;0.000;0.000;2023-07-29T14:04:28;25.20;80.40
66708;DHT22;53622;0.000;0.000;2023-07-29T14:06:57;25.30;79.90
66708;DHT22;53622;0.000;0.000;2023-07-29T14:09:27;25.30;79.70
66708;DHT22;53622;0.000;0.000;2023-07-29T14:11:56;25.30;79.50
66708;DHT22;53622;0.000;0.000;2023-07-29T14:14:27;25.30;79.60
66708;DHT22;53622;0.000;0.000;2023-07-29T14:16:57;25.20;79.60
66708;DHT22;53622;0.000;0.000;2023-07-29T14:19:26;25.20;79.50
66708;DHT22;53622;0.000;0.000;2023-07-29T14:21:55;25.30;78.80
66708;DHT22;53622;0.000;0.000;2023-07-29T14:24:25;25.20;79.40
66708;DHT22;53622;0.000;0.000;2023-07-29T14:26:54;25.30;81.40
66708;DHT22;53622;0.000;0.000;2023-07-29T14:29:23;25.30;84.40
66708;DHT22;53622;0.000;0.000;2023-07-29T14:31:54;25.40;89.80
66708;DHT22;53622;0.000;0.000;2023-07-29T14:34:23;25.20;81.70
66708;DHT22;53622;0.000;0.000;2023-07-29T14:36:53;25.20;83.30
66708;DHT22;53622;0.000;0.000;2023-07-29T14:39:22;25.20;79.90
66708;DHT22;53622;0.000;0.000;2023-07-29T14:41:51;25.20;99.90
66708;DHT22;53622;0.000;0.000;2023-07-29T14:44:21;25.20;79.90
66708;DHT22;53622;0.000;0.000;2023-07-29T14:46:50;25.00;99.90
66708;DHT22;53622;0.000;0.000;2023-07-29T14:49:21;25.20;92.40
66708;DHT22;53622;0.000;0.000;2023-07-29T14:51:50;25.20;79.80
66708;DHT22;53622;0.000;0.000;2023-07-29T14:54:19;25.20;79.80
66708;DHT22;53622;0.000;0.000;2023-07-29T14:56:49;25.20;79.60
66708;DHT22;53622;0.000;0.000;2023-07-29T14:59:18;25.20;79.50
66708;DHT22;53622;0.000;0.000;2023-07-29T15:01:47;25.20;79.40
66708;DHT22;53622;0.000;0.000;2023-07-29T15:04:17;25.20;80.00
66708;DHT22;53622;0.000;0.000;2023-07-29T15:06:48;25.20;80.80
66708;DHT22;53622;0.000;0.000;2023-07-29T15:09:18;25.30;80.60
66708;DHT22;53622;0.000;0.000;2023-07-29T15:11:47;25.30;80.60
66708;DHT22;53622;0.000;0.000;2023-07-29T15:14:17;25.30;80.60
66708;DHT22;53622;0.000;0.000;2023-07-29T15:16:46;25.30;80.50
66708;DHT22;53622;0.000;0.000;2023-07-29T15:19:16;25.40;80.50
66708;DHT22;53622;0.000;0.000;2023-07-29T15:21:46;25.40;80.10
66708;DHT22;53622;0.000;0.000;2023-07-29T15:24:17;25.40;80.10
66708;DHT22;53622;0.000;0.000;2023-07-29T15:26:46;25.40;80.20
66708;DHT22;53622;0.000;0.000;2023-07-29T15:29:15;25.30;80.40
66708;DHT22;53622;0.000;0.000;2023-07-29T15:31:46;25.40;80.40
66708;DHT22;53622;0.000;0.000;2023-07-29T15:34:16;25.40;79.90
66708;DHT22;53622;0.000;0.000;2023-07-29T15:36:45;25.40;79.10
66708;DHT22;53622;0.000;0.000;2023-07-29T15:39:16;25.40;79.10
66708;DHT22;53622;0.000;0.000;2023-07-29T15:41:45;25.50;78.70
66708;DHT22;53622;0.000;0.000;2023-07-29T15:44:15;25.50;77.90
66708;DHT22;53622;0.000;0.000;2023-07-29T15:46:44;25.50;77.70
66708;DHT22;53622;0.000;0.000;2023-07-29T15:49:14;25.50;77.70
66708;DHT22;53622;0.000;0.000;2023-07-29T15:51:43;25.50;77.10
66708;DHT22;53622;0.000;0.000;2023-07-29T15:54:12;25.50;77.20
66708;DHT22;53622;0.000;0.000;2023-07-29T15:56:44;25.50;77.10
66708;DHT22;53622;0.000;0.000;2023-07-29T15:59:14;25.50;76.70
66708;DHT22;53622;0.000;0.000;2023-07-29T16:01:43;25.50;76.80
66708;DHT22;53622;0.000;0.000;2023-07-29T16:04:12;25.50;77.00
66708;DHT22;53622;0.000;0.000;2023-07-29T16:06:42;25.50;77.00
66708;DHT22;53622;0.000;0.000;2023-07-29T16:09:11;25.50;77.40
66708;DHT22;53622;0.000;0.000;2023-07-29T16:11:40;25.40;77.70
66708;DHT22;53622;0.000;0.000;2023-07-29T16:14:11;25.40;78.20